sensor_id;sensor_type;location;lat;lon;timestamp;pressure;altitude;pressure_sealevel;temperature;humidity
50933;BME280;36921;49.006;9.292;2022-07-23T00:01:56;98635.41;;;24.36;64.42
50933;BME280;36921;49.006;9.292;2022-07-23T00:04:21;98640.19;;;24.31;64.82
50933;BME280;36921;49.006;9.292;2022-07-23T00:06:46;98632.44;;;24.33;64.02
50933;BME280;36921;49.006;9.292;2022-07-23T00:09:11;98634.50;;;24.22;65.21
50933;BME280;36921;49.006;9.292;2022-07-23T00:11:37;98629.94;;;24.31;63.91
50933;BME280;36921;49.006;9.292;2022-07-23T00:14:02;98634.38;;;24.32;63.94
50933;BME280;36921;49.006;9.292;2022-07-23T00:16:27;98619.41;;;24.33;63.02
50933;BME280;36921;49.006;9.292;2022-07-23T00:18:53;98624.66;;;24.35;62.67
50933;BME280;36921;49.006;9.292;2022-07-23T00:21:18;98623.00;;;24.34;62.40
50933;BME280;36921;49.006;9.292;2022-07-23T00:23:43;98609.94;;;24.39;61.20
50933;BME280;36921;49.006;9.292;2022-07-23T00:26:08;98635.28;;;24.46;60.13
50933;BME280;36921;49.006;9.292;2022-07-23T00:28:34;98613.41;;;24.50;59.74
50933;BME280;36921;49.006;9.292;2022-07-23T00:30:59;98609.59;;;24.46;59.56
50933;BME280;36921;49.006;9.292;2022-07-23T00:33:25;98605.00;;;24.36;59.56
50933;BME280;36921;49.006;9.292;2022-07-23T00:35:50;98612.41;;;24.41;59.87
50933;BME280;36921;49.006;9.292;2022-07-23T00:38:15;98606.88;;;24.41;59.36
50933;BME280;36921;49.006;9.292;2022-07-23T00:40:40;98598.03;;;24.39;58.88
50933;BME280;36921;49.006;9.292;2022-07-23T00:43:06;98593.56;;;24.43;59.03
50933;BME280;36921;49.006;9.292;2022-07-23T00:45:32;98595.81;;;24.41;58.49
50933;BME280;36921;49.006;9.292;2022-07-23T00:47:58;98579.34;;;24.31;57.95
50933;BME280;36921;49.006;9.292;2022-07-23T00:50:24;98592.00;;;24.37;57.80
50933;BME280;36921;49.006;9.292;2022-07-23T00:52:50;98591.47;;;24.35;57.67
50933;BME280;36921;49.006;9.292;2022-07-23T00:55:15;98594.78;;;24.37;57.13
50933;BME280;36921;49.006;9.292;2022-07-23T00:57:41;98574.44;;;24.27;56.78
50933;BME280;36921;49.006;9.292;2022-07-23T01:00:09;98590.75;;;24.29;57.17
50933;BME280;36921;49.006;9.292;2022-07-23T01:02:35;98595.81;;;24.22;57.40
50933;BME280;36921;49.006;9.292;2022-07-23T01:05:01;98600.66;;;24.11;57.80
50933;BME280;36921;49.006;9.292;2022-07-23T01:07:27;98611.84;;;24.01;58.69
50933;BME280;36921;49.006;9.292;2022-07-23T01:09:53;98623.31;;;23.89;59.13
50933;BME280;36921;49.006;9.292;2022-07-23T01:12:19;98617.28;;;23.87;59.23
50933;BME280;36921;49.006;9.292;2022-07-23T01:14:44;98609.66;;;23.79;59.53
50933;BME280;36921;49.006;9.292;2022-07-23T01:17:10;98608.31;;;23.71;59.17
50933;BME280;36921;49.006;9.292;2022-07-23T01:19:35;98600.59;;;23.68;59.20
50933;BME280;36921;49.006;9.292;2022-07-23T01:22:03;98592.28;;;23.73;58.74
50933;BME280;36921;49.006;9.292;2022-07-23T01:24:28;98598.94;;;23.72;58.74
50933;BME280;36921;49.006;9.292;2022-07-23T01:26:54;98595.00;;;23.78;58.85
50933;BME280;36921;49.006;9.292;2022-07-23T01:29:19;98590.88;;;23.76;59.04
50933;BME280;36921;49.006;9.292;2022-07-23T01:31:46;98581.72;;;23.80;58.46
50933;BME280;36921;49.006;9.292;2022-07-23T01:34:12;98586.22;;;23.71;59.18
50933;BME280;36921;49.006;9.292;2022-07-23T01:36:38;98590.38;;;23.74;58.82
50933;BME280;36921;49.006;9.292;2022-07-23T01:39:04;98586.19;;;23.76;58.88
50933;BME280;36921;49.006;9.292;2022-07-23T01:41:30;98573.94;;;23.82;58.86
50933;BME280;36921;49.006;9.292;2022-07-23T01:43:56;98547.03;;;23.69;59.80
50933;BME280;36921;49.006;9.292;2022-07-23T01:46:21;98563.19;;;23.57;61.46
50933;BME280;36921;49.006;9.292;2022-07-23T01:48:46;98568.34;;;23.39;63.55
50933;BME280;36921;49.006;9.292;2022-07-23T01:51:12;98577.75;;;23.38;62.96
50933;BME280;36921;49.006;9.292;2022-07-23T01:53:37;98566.88;;;23.23;62.09
50933;BME280;36921;49.006;9.292;2022-07-23T01:56:03;98576.94;;;23.38;61.85
50933;BME280;36921;49.006;9.292;2022-07-23T01:58:29;98575.59;;;23.35;62.64
50933;BME280;36921;49.006;9.292;2022-07-23T02:00:54;98580.63;;;23.28;63.35
50933;BME280;36921;49.006;9.292;2022-07-23T02:03:20;98566.50;;;23.06;64.33
50933;BME280;36921;49.006;9.292;2022-07-23T02:05:45;98570.97;;;23.02;64.74
50933;BME280;36921;49.006;9.292;2022-07-23T02:08:11;98583.13;;;22.95;65.81
50933;BME280;36921;49.006;9.292;2022-07-23T02:10:36;98597.25;;;22.89;65.98
50933;BME280;36921;49.006;9.292;2022-07-23T02:13:02;98584.97;;;22.71;66.20
50933;BME280;36921;49.006;9.292;2022-07-23T02:15:27;98603.97;;;22.78;65.58
50933;BME280;36921;49.006;9.292;2022-07-23T02:17:53;98608.25;;;22.60;67.17
50933;BME280;36921;49.006;9.292;2022-07-23T02:20:19;98622.41;;;22.48;68.37
50933;BME280;36921;49.006;9.292;2022-07-23T02:22:44;98600.06;;;22.44;68.98
50933;BME280;36921;49.006;9.292;2022-07-23T02:25:09;98603.03;;;22.53;69.04
50933;BME280;36921;49.006;9.292;2022-07-23T02:27:35;98609.22;;;22.35;70.88
50933;BME280;36921;49.006;9.292;2022-07-23T02:30:02;98607.38;;;22.25;73.17
50933;BME280;36921;49.006;9.292;2022-07-23T02:32:27;98611.56;;;22.07;73.94
50933;BME280;36921;49.006;9.292;2022-07-23T02:34:53;98609.38;;;22.09;75.24
50933;BME280;36921;49.006;9.292;2022-07-23T02:37:18;98617.72;;;21.88;75.36
50933;BME280;36921;49.006;9.292;2022-07-23T02:39:44;98640.00;;;21.92;75.21
50933;BME280;36921;49.006;9.292;2022-07-23T02:42:09;98662.59;;;21.94;76.86
50933;BME280;36921;49.006;9.292;2022-07-23T02:44:35;98662.88;;;21.87;78.62
50933;BME280;36921;49.006;9.292;2022-07-23T02:47:00;98659.31;;;21.82;79.08
50933;BME280;36921;49.006;9.292;2022-07-23T02:49:25;98649.41;;;21.81;77.77
50933;BME280;36921;49.006;9.292;2022-07-23T02:51:51;98655.78;;;21.71;78.35
50933;BME280;36921;49.006;9.292;2022-07-23T02:54:16;98637.91;;;21.58;78.09
50933;BME280;36921;49.006;9.292;2022-07-23T02:56:42;98632.44;;;21.48;77.78
50933;BME280;36921;49.006;9.292;2022-07-23T02:59:07;98667.91;;;21.70;77.64
50933;BME280;36921;49.006;9.292;2022-07-23T03:01:33;98677.53;;;21.67;78.13
50933;BME280;36921;49.006;9.292;2022-07-23T03:03:58;98664.91;;;21.61;78.77
50933;BME280;36921;49.006;9.292;2022-07-23T03:06:23;98687.47;;;21.63;78.98
50933;BME280;36921;49.006;9.292;2022-07-23T03:08:48;98669.88;;;21.54;79.14
50933;BME280;36921;49.006;9.292;2022-07-23T03:11:14;98686.38;;;21.59;79.07
50933;BME280;36921;49.006;9.292;2022-07-23T03:13:40;98674.25;;;21.60;79.45
50933;BME280;36921;49.006;9.292;2022-07-23T03:16:06;98687.47;;;21.58;79.80
50933;BME280;36921;49.006;9.292;2022-07-23T03:18:32;98680.31;;;21.57;79.72
50933;BME280;36921;49.006;9.292;2022-07-23T03:20:58;98686.09;;;21.56;80.04
50933;BME280;36921;49.006;9.292;2022-07-23T03:23:23;98684.72;;;21.53;80.13
50933;BME280;36921;49.006;9.292;2022-07-23T03:25:48;98683.34;;;21.56;80.34
50933;BME280;36921;49.006;9.292;2022-07-23T03:28:17;98688.84;;;21.56;80.46
50933;BME280;36921;49.006;9.292;2022-07-23T03:30:44;98693.53;;;21.55;80.75
50933;BME280;36921;49.006;9.292;2022-07-23T03:33:15;98663.81;;;21.32;81.56
50933;BME280;36921;49.006;9.292;2022-07-23T03:35:42;98686.97;;;21.46;82.08
50933;BME280;36921;49.006;9.292;2022-07-23T03:38:07;98686.09;;;21.40;82.86
50933;BME280;36921;49.006;9.292;2022-07-23T03:40:32;98685.81;;;21.37;83.26
50933;BME280;36921;49.006;9.292;2022-07-23T03:42:58;98691.31;;;21.37;83.15
50933;BME280;36921;49.006;9.292;2022-07-23T03:45:23;98692.16;;;21.27;84.76
50933;BME280;36921;49.006;9.292;2022-07-23T03:47:48;98693.81;;;21.28;85.25
50933;BME280;36921;49.006;9.292;2022-07-23T03:50:14;98695.19;;;21.20;86.44
50933;BME280;36921;49.006;9.292;2022-07-23T03:52:39;98697.94;;;21.10;87.59
50933;BME280;36921;49.006;9.292;2022-07-23T03:55:05;98696.31;;;21.09;87.52
50933;BME280;36921;49.006;9.292;2022-07-23T03:57:30;98693.53;;;21.04;87.55
50933;BME280;36921;49.006;9.292;2022-07-23T03:59:56;98701.78;;;21.19;87.29
50933;BME280;36921;49.006;9.292;2022-07-23T04:02:21;98700.69;;;21.26;86.42
50933;BME280;36921;49.006;9.292;2022-07-23T04:04:46;98699.03;;;21.35;85.92
50933;BME280;36921;49.006;9.292;2022-07-23T04:07:12;98695.44;;;21.29;85.83
50933;BME280;36921;49.006;9.292;2022-07-23T04:09:38;98706.19;;;21.31;86.95
50933;BME280;36921;49.006;9.292;2022-07-23T04:12:05;98701.78;;;21.19;88.73
50933;BME280;36921;49.006;9.292;2022-07-23T04:14:31;98704.28;;;21.21;88.86
50933;BME280;36921;49.006;9.292;2022-07-23T04:16:56;98704.53;;;21.19;89.62
50933;BME280;36921;49.006;9.292;2022-07-23T04:19:21;98699.31;;;21.18;90.29
50933;BME280;36921;49.006;9.292;2022-07-23T04:21:47;98706.75;;;21.17;90.05
50933;BME280;36921;49.006;9.292;2022-07-23T04:24:12;98708.38;;;21.34;88.68
50933;BME280;36921;49.006;9.292;2022-07-23T04:26:37;98712.25;;;21.43;88.38
50933;BME280;36921;49.006;9.292;2022-07-23T04:29:02;98714.75;;;21.50;87.76
50933;BME280;36921;49.006;9.292;2022-07-23T04:31:28;98713.63;;;21.61;86.64
50933;BME280;36921;49.006;9.292;2022-07-23T04:33:53;98698.22;;;21.60;85.69
50933;BME280;36921;49.006;9.292;2022-07-23T04:36:18;98717.47;;;21.75;85.45
50933;BME280;36921;49.006;9.292;2022-07-23T04:38:44;98715.50;;;21.86;84.02
50933;BME280;36921;49.006;9.292;2022-07-23T04:41:09;98718.50;;;21.95;83.63
50933;BME280;36921;49.006;9.292;2022-07-23T04:43:34;98717.13;;;21.97;82.56
50933;BME280;36921;49.006;9.292;2022-07-23T04:45:59;98729.50;;;22.05;81.96
50933;BME280;36921;49.006;9.292;2022-07-23T04:48:25;98722.59;;;22.07;83.16
50933;BME280;36921;49.006;9.292;2022-07-23T04:50:50;98726.69;;;22.15;82.13
50933;BME280;36921;49.006;9.292;2022-07-23T04:53:15;98719.81;;;22.23;81.13
50933;BME280;36921;49.006;9.292;2022-07-23T04:55:41;98718.69;;;22.24;81.60
50933;BME280;36921;49.006;9.292;2022-07-23T04:58:06;98725.88;;;22.25;83.27
50933;BME280;36921;49.006;9.292;2022-07-23T05:00:31;98737.47;;;22.27;83.86
50933;BME280;36921;49.006;9.292;2022-07-23T05:02:57;98751.44;;;22.46;82.39
50933;BME280;36921;49.006;9.292;2022-07-23T05:05:22;98744.19;;;22.60;81.35
50933;BME280;36921;49.006;9.292;2022-07-23T05:07:48;98754.34;;;22.70;79.70
50933;BME280;36921;49.006;9.292;2022-07-23T05:10:13;98753.47;;;22.80;78.64
50933;BME280;36921;49.006;9.292;2022-07-23T05:12:38;98750.38;;;22.86;77.04
50933;BME280;36921;49.006;9.292;2022-07-23T05:15:04;98734.34;;;22.99;75.93
50933;BME280;36921;49.006;9.292;2022-07-23T05:17:29;98737.28;;;23.07;75.36
50933;BME280;36921;49.006;9.292;2022-07-23T05:19:54;98739.44;;;23.15;72.75
50933;BME280;36921;49.006;9.292;2022-07-23T05:22:20;98731.34;;;23.29;70.88
50933;BME280;36921;49.006;9.292;2022-07-23T05:24:45;98730.50;;;23.29;69.57
50933;BME280;36921;49.006;9.292;2022-07-23T05:27:10;98731.88;;;23.31;68.90
50933;BME280;36921;49.006;9.292;2022-07-23T05:29:36;98736.13;;;23.53;68.18
50933;BME280;36921;49.006;9.292;2022-07-23T05:32:01;98749.75;;;23.68;69.84
50933;BME280;36921;49.006;9.292;2022-07-23T05:34:26;98747.53;;;23.75;70.38
50933;BME280;36921;49.006;9.292;2022-07-23T05:36:52;98749.88;;;23.58;70.85
50933;BME280;36921;49.006;9.292;2022-07-23T05:39:17;98759.00;;;23.58;72.36
50933;BME280;36921;49.006;9.292;2022-07-23T05:41:42;98768.13;;;23.54;70.22
50933;BME280;36921;49.006;9.292;2022-07-23T05:44:08;98767.78;;;23.60;70.77
50933;BME280;36921;49.006;9.292;2022-07-23T05:46:33;98782.72;;;23.59;71.97
50933;BME280;36921;49.006;9.292;2022-07-23T05:48:58;98790.19;;;23.59;69.60
50933;BME280;36921;49.006;9.292;2022-07-23T05:51:24;98802.53;;;23.32;67.30
50933;BME280;36921;49.006;9.292;2022-07-23T05:53:50;98801.28;;;23.54;65.89
50933;BME280;36921;49.006;9.292;2022-07-23T05:56:16;98803.09;;;23.69;66.96
50933;BME280;36921;49.006;9.292;2022-07-23T05:58:42;98812.34;;;23.49;64.98
50933;BME280;36921;49.006;9.292;2022-07-23T06:01:07;98797.00;;;23.37;65.36
50933;BME280;36921;49.006;9.292;2022-07-23T06:03:33;98818.34;;;23.22;68.48
50933;BME280;36921;49.006;9.292;2022-07-23T06:05:58;98821.75;;;23.08;71.16
50933;BME280;36921;49.006;9.292;2022-07-23T06:08:23;98831.44;;;22.95;73.09
50933;BME280;36921;49.006;9.292;2022-07-23T06:10:49;98821.81;;;22.88;79.46
50933;BME280;36921;49.006;9.292;2022-07-23T06:13:14;98815.63;;;22.57;90.42
50933;BME280;36921;49.006;9.292;2022-07-23T06:15:39;98813.78;;;22.26;100.00
50933;BME280;36921;49.006;9.292;2022-07-23T06:18:05;98807.75;;;22.09;100.00
50933;BME280;36921;49.006;9.292;2022-07-23T06:20:30;98809.41;;;21.95;100.00
50933;BME280;36921;49.006;9.292;2022-07-23T06:22:55;98800.34;;;21.84;100.00
50933;BME280;36921;49.006;9.292;2022-07-23T06:25:20;98796.50;;;21.75;100.00
50933;BME280;36921;49.006;9.292;2022-07-23T06:27:46;98784.09;;;21.77;100.00
50933;BME280;36921;49.006;9.292;2022-07-23T06:30:13;98781.06;;;21.79;100.00
50933;BME280;36921;49.006;9.292;2022-07-23T06:32:41;98789.31;;;21.94;100.00
50933;BME280;36921;49.006;9.292;2022-07-23T06:35:06;98782.41;;;22.02;100.00
50933;BME280;36921;49.006;9.292;2022-07-23T06:37:32;98782.66;;;22.05;100.00
50933;BME280;36921;49.006;9.292;2022-07-23T06:39:57;98787.88;;;22.17;100.00
50933;BME280;36921;49.006;9.292;2022-07-23T06:42:22;98794.19;;;22.38;100.00
50933;BME280;36921;49.006;9.292;2022-07-23T06:44:47;98803.81;;;22.41;100.00
50933;BME280;36921;49.006;9.292;2022-07-23T06:47:13;98798.56;;;22.44;99.92
50933;BME280;36921;49.006;9.292;2022-07-23T06:49:38;98800.78;;;22.42;100.00
50933;BME280;36921;49.006;9.292;2022-07-23T06:52:06;98805.69;;;22.56;99.33
50933;BME280;36921;49.006;9.292;2022-07-23T06:54:31;98802.28;;;22.74;96.33
50933;BME280;36921;49.006;9.292;2022-07-23T06:56:56;98825.84;;;22.56;95.11
50933;BME280;36921;49.006;9.292;2022-07-23T06:59:22;98839.44;;;22.01;100.00
50933;BME280;36921;49.006;9.292;2022-07-23T07:01:47;98837.25;;;21.93;100.00
50933;BME280;36921;49.006;9.292;2022-07-23T07:04:12;98856.53;;;21.83;100.00
50933;BME280;36921;49.006;9.292;2022-07-23T07:06:37;98912.13;;;21.59;100.00
50933;BME280;36921;49.006;9.292;2022-07-23T07:09:03;98907.25;;;21.04;100.00
50933;BME280;36921;49.006;9.292;2022-07-23T07:11:28;98872.59;;;20.45;100.00
50933;BME280;36921;49.006;9.292;2022-07-23T07:13:53;98900.00;;;20.34;100.00
50933;BME280;36921;49.006;9.292;2022-07-23T07:16:19;98894.72;;;19.90;100.00
50933;BME280;36921;49.006;9.292;2022-07-23T07:18:44;98913.66;;;19.60;100.00
50933;BME280;36921;49.006;9.292;2022-07-23T07:21:09;98918.25;;;19.54;100.00
50933;BME280;36921;49.006;9.292;2022-07-23T07:23:35;98917.44;;;19.54;100.00
50933;BME280;36921;49.006;9.292;2022-07-23T07:26:00;98903.13;;;19.52;100.00
50933;BME280;36921;49.006;9.292;2022-07-23T07:28:25;98890.50;;;19.51;100.00
50933;BME280;36921;49.006;9.292;2022-07-23T07:30:51;98878.44;;;19.52;100.00
50933;BME280;36921;49.006;9.292;2022-07-23T07:33:16;98866.91;;;19.49;100.00
50933;BME280;36921;49.006;9.292;2022-07-23T07:35:41;98865.88;;;19.56;100.00
50933;BME280;36921;49.006;9.292;2022-07-23T07:38:07;98849.50;;;19.66;100.00
50933;BME280;36921;49.006;9.292;2022-07-23T07:40:32;98841.22;;;19.93;100.00
50933;BME280;36921;49.006;9.292;2022-07-23T07:42:57;98835.91;;;20.19;100.00
50933;BME280;36921;49.006;9.292;2022-07-23T07:45:24;98850.06;;;20.48;100.00
50933;BME280;36921;49.006;9.292;2022-07-23T07:47:50;98861.28;;;20.84;100.00
50933;BME280;36921;49.006;9.292;2022-07-23T07:50:16;98852.78;;;21.00;100.00
50933;BME280;36921;49.006;9.292;2022-07-23T07:52:42;98831.09;;;21.24;100.00
50933;BME280;36921;49.006;9.292;2022-07-23T07:55:08;98841.94;;;21.82;100.00
50933;BME280;36921;49.006;9.292;2022-07-23T07:57:35;98845.75;;;22.12;100.00
50933;BME280;36921;49.006;9.292;2022-07-23T08:00:00;98844.94;;;22.22;100.00
50933;BME280;36921;49.006;9.292;2022-07-23T08:02:26;98810.41;;;22.45;100.00
50933;BME280;36921;49.006;9.292;2022-07-23T08:04:51;98859.44;;;23.28;100.00
50933;BME280;36921;49.006;9.292;2022-07-23T08:07:18;98857.81;;;24.01;100.00
50933;BME280;36921;49.006;9.292;2022-07-23T08:09:43;98839.06;;;23.98;100.00
50933;BME280;36921;49.006;9.292;2022-07-23T08:12:08;98862.63;;;24.19;100.00
50933;BME280;36921;49.006;9.292;2022-07-23T08:14:34;98861.22;;;24.22;100.00
50933;BME280;36921;49.006;9.292;2022-07-23T08:16:59;98876.66;;;24.52;100.00
50933;BME280;36921;49.006;9.292;2022-07-23T08:19:24;98869.66;;;23.67;100.00
50933;BME280;36921;49.006;9.292;2022-07-23T08:21:49;98864.97;;;23.23;100.00
50933;BME280;36921;49.006;9.292;2022-07-23T08:24:15;98878.22;;;23.21;100.00
50933;BME280;36921;49.006;9.292;2022-07-23T08:26:40;98868.59;;;22.43;100.00
50933;BME280;36921;49.006;9.292;2022-07-23T08:29:06;98877.44;;;22.09;100.00
50933;BME280;36921;49.006;9.292;2022-07-23T08:31:31;98885.72;;;21.89;100.00
50933;BME280;36921;49.006;9.292;2022-07-23T08:33:58;98887.38;;;21.75;100.00
50933;BME280;36921;49.006;9.292;2022-07-23T08:36:23;98881.31;;;21.83;100.00
50933;BME280;36921;49.006;9.292;2022-07-23T08:38:49;98874.69;;;21.58;100.00
50933;BME280;36921;49.006;9.292;2022-07-23T08:41:14;98879.66;;;21.61;100.00
50933;BME280;36921;49.006;9.292;2022-07-23T08:43:41;98904.44;;;21.72;100.00
50933;BME280;36921;49.006;9.292;2022-07-23T08:46:08;98900.56;;;22.08;100.00
50933;BME280;36921;49.006;9.292;2022-07-23T08:48:35;98919.03;;;22.03;100.00
50933;BME280;36921;49.006;9.292;2022-07-23T08:51:03;98918.81;;;22.20;100.00
50933;BME280;36921;49.006;9.292;2022-07-23T08:53:30;98924.28;;;22.45;100.00
50933;BME280;36921;49.006;9.292;2022-07-23T08:55:58;98913.53;;;22.44;100.00
50933;BME280;36921;49.006;9.292;2022-07-23T08:58:24;98889.28;;;22.41;100.00
50933;BME280;36921;49.006;9.292;2022-07-23T09:00:50;98905.28;;;22.39;100.00
50933;BME280;36921;49.006;9.292;2022-07-23T09:03:27;98898.53;;;22.81;100.00
50933;BME280;36921;49.006;9.292;2022-07-23T09:05:53;98902.66;;;22.99;100.00
50933;BME280;36921;49.006;9.292;2022-07-23T09:08:23;98899.22;;;23.67;100.00
50933;BME280;36921;49.006;9.292;2022-07-23T09:16:02;98888.38;;;27.26;68.18
50933;BME280;36921;49.006;9.292;2022-07-23T09:21:21;98892.19;;;31.39;50.54
50933;BME280;36921;49.006;9.292;2022-07-23T09:23:55;98900.94;;;31.79;48.53
50933;BME280;36921;49.006;9.292;2022-07-23T09:26:26;98894.88;;;32.89;47.62
50933;BME280;36921;49.006;9.292;2022-07-23T09:31:24;98887.75;;;33.81;42.92
50933;BME280;36921;49.006;9.292;2022-07-23T09:33:50;98881.91;;;35.22;39.71
50933;BME280;36921;49.006;9.292;2022-07-23T09:36:27;98888.69;;;36.11;38.04
50933;BME280;36921;49.006;9.292;2022-07-23T09:38:52;98885.94;;;36.15;37.28
50933;BME280;36921;49.006;9.292;2022-07-23T09:41:18;98885.63;;;37.35;35.53
50933;BME280;36921;49.006;9.292;2022-07-23T09:43:44;98890.16;;;37.43;34.17
50933;BME280;36921;49.006;9.292;2022-07-23T09:46:24;98883.81;;;36.31;37.49
50933;BME280;36921;49.006;9.292;2022-07-23T09:48:51;98885.75;;;37.72;34.51
50933;BME280;36921;49.006;9.292;2022-07-23T09:51:17;98879.84;;;34.87;39.08
50933;BME280;36921;49.006;9.292;2022-07-23T09:54:01;98880.78;;;33.75;41.84
50933;BME280;36921;49.006;9.292;2022-07-23T09:56:27;98883.41;;;32.94;43.56
50933;BME280;36921;49.006;9.292;2022-07-23T09:58:53;98889.53;;;31.42;46.71
50933;BME280;36921;49.006;9.292;2022-07-23T10:01:38;98890.69;;;32.04;48.26
50933;BME280;36921;49.006;9.292;2022-07-23T10:04:05;98889.38;;;33.54;45.88
50933;BME280;36921;49.006;9.292;2022-07-23T10:06:33;98887.38;;;35.50;40.90
50933;BME280;36921;49.006;9.292;2022-07-23T10:08:59;98886.22;;;36.10;39.47
50933;BME280;36921;49.006;9.292;2022-07-23T10:11:26;98881.94;;;36.81;37.87
50933;BME280;36921;49.006;9.292;2022-07-23T10:13:53;98884.56;;;37.74;37.39
50933;BME280;36921;49.006;9.292;2022-07-23T10:16:19;98887.66;;;37.38;36.59
50933;BME280;36921;49.006;9.292;2022-07-23T10:18:46;98891.75;;;37.41;35.92
50933;BME280;36921;49.006;9.292;2022-07-23T10:21:18;98879.25;;;38.36;35.09
50933;BME280;36921;49.006;9.292;2022-07-23T10:23:57;98884.78;;;38.25;32.79
50933;BME280;36921;49.006;9.292;2022-07-23T10:29:55;98885.53;;;38.19;35.05
50933;BME280;36921;49.006;9.292;2022-07-23T10:35:26;98883.91;;;39.55;33.14
50933;BME280;36921;49.006;9.292;2022-07-23T10:38:06;98883.38;;;37.78;34.07
50933;BME280;36921;49.006;9.292;2022-07-23T10:40:32;98884.72;;;38.18;33.57
50933;BME280;36921;49.006;9.292;2022-07-23T10:42:59;98876.00;;;37.97;32.60
50933;BME280;36921;49.006;9.292;2022-07-23T10:50:39;98878.63;;;37.52;34.86
50933;BME280;36921;49.006;9.292;2022-07-23T10:57:56;98873.53;;;34.31;38.17
50933;BME280;36921;49.006;9.292;2022-07-23T11:00:23;98877.78;;;35.90;36.27
50933;BME280;36921;49.006;9.292;2022-07-23T11:02:51;98867.16;;;35.29;36.83
50933;BME280;36921;49.006;9.292;2022-07-23T11:05:20;98875.69;;;35.68;37.68
50933;BME280;36921;49.006;9.292;2022-07-23T11:18:57;98878.09;;;38.85;32.38
50933;BME280;36921;49.006;9.292;2022-07-23T11:24:12;98871.66;;;38.06;32.21
50933;BME280;36921;49.006;9.292;2022-07-23T11:26:52;98866.25;;;38.65;30.88
50933;BME280;36921;49.006;9.292;2022-07-23T11:29:39;98860.56;;;39.13;30.50
50933;BME280;36921;49.006;9.292;2022-07-23T11:32:24;98863.53;;;38.39;30.85
50933;BME280;36921;49.006;9.292;2022-07-23T11:34:52;98848.31;;;38.98;32.21
50933;BME280;36921;49.006;9.292;2022-07-23T11:37:35;98856.53;;;38.66;30.80
50933;BME280;36921;49.006;9.292;2022-07-23T11:40:04;98849.38;;;37.98;32.80
50933;BME280;36921;49.006;9.292;2022-07-23T11:42:31;98850.72;;;38.11;32.57
50933;BME280;36921;49.006;9.292;2022-07-23T11:44:57;98818.66;;;37.62;32.79
50933;BME280;36921;49.006;9.292;2022-07-23T11:47:25;98848.56;;;37.37;32.67
50933;BME280;36921;49.006;9.292;2022-07-23T11:49:56;98844.50;;;38.32;30.91
50933;BME280;36921;49.006;9.292;2022-07-23T11:52:22;98843.06;;;38.11;32.36
50933;BME280;36921;49.006;9.292;2022-07-23T11:54:52;98840.56;;;38.44;31.70
50933;BME280;36921;49.006;9.292;2022-07-23T11:57:20;98848.44;;;37.29;31.71
50933;BME280;36921;49.006;9.292;2022-07-23T11:59:47;98842.97;;;37.70;31.63
50933;BME280;36921;49.006;9.292;2022-07-23T12:02:13;98839.97;;;37.90;31.78
50933;BME280;36921;49.006;9.292;2022-07-23T12:04:46;98833.66;;;39.37;29.88
50933;BME280;36921;49.006;9.292;2022-07-23T12:07:34;98830.91;;;39.59;29.64
50933;BME280;36921;49.006;9.292;2022-07-23T12:10:05;98840.00;;;39.23;30.28
50933;BME280;36921;49.006;9.292;2022-07-23T12:12:58;98826.69;;;38.72;28.62
50933;BME280;36921;49.006;9.292;2022-07-23T12:15:27;98822.50;;;39.04;30.39
50933;BME280;36921;49.006;9.292;2022-07-23T12:17:55;98818.19;;;38.72;30.27
50933;BME280;36921;49.006;9.292;2022-07-23T12:20:27;98822.50;;;38.52;30.14
50933;BME280;36921;49.006;9.292;2022-07-23T12:22:56;98823.97;;;38.01;30.27
50933;BME280;36921;49.006;9.292;2022-07-23T12:25:24;98809.97;;;38.49;30.28
50933;BME280;36921;49.006;9.292;2022-07-23T12:28:11;98816.56;;;38.27;29.69
50933;BME280;36921;49.006;9.292;2022-07-23T12:30:38;98815.09;;;37.39;28.95
50933;BME280;36921;49.006;9.292;2022-07-23T12:33:04;98815.84;;;37.62;30.26
50933;BME280;36921;49.006;9.292;2022-07-23T12:35:44;98816.78;;;36.40;31.02
50933;BME280;36921;49.006;9.292;2022-07-23T12:38:12;98810.38;;;35.59;32.15
50933;BME280;36921;49.006;9.292;2022-07-23T12:40:47;98815.16;;;36.39;31.71
50933;BME280;36921;49.006;9.292;2022-07-23T12:43:23;98802.03;;;37.91;30.41
50933;BME280;36921;49.006;9.292;2022-07-23T12:45:52;98820.56;;;38.60;28.75
50933;BME280;36921;49.006;9.292;2022-07-23T12:48:26;98826.25;;;38.67;28.39
50933;BME280;36921;49.006;9.292;2022-07-23T12:50:57;98823.97;;;38.01;29.83
50933;BME280;36921;49.006;9.292;2022-07-23T12:53:24;98821.72;;;38.55;29.12
50933;BME280;36921;49.006;9.292;2022-07-23T12:56:00;98825.59;;;38.40;30.14
50933;BME280;36921;49.006;9.292;2022-07-23T12:58:26;98820.31;;;38.38;30.67
50933;BME280;36921;49.006;9.292;2022-07-23T13:01:04;98829.63;;;36.38;32.07
50933;BME280;36921;49.006;9.292;2022-07-23T13:03:37;98830.00;;;35.74;32.66
50933;BME280;36921;49.006;9.292;2022-07-23T13:06:05;98827.75;;;36.69;32.60
50933;BME280;36921;49.006;9.292;2022-07-23T13:08:32;98828.22;;;37.24;30.07
50933;BME280;36921;49.006;9.292;2022-07-23T13:10:58;98832.88;;;38.03;30.21
50933;BME280;36921;49.006;9.292;2022-07-23T13:13:26;98824.06;;;37.44;30.34
50933;BME280;36921;49.006;9.292;2022-07-23T13:15:52;98828.59;;;37.83;29.71
50933;BME280;36921;49.006;9.292;2022-07-23T13:18:18;98828.66;;;38.24;29.90
50933;BME280;36921;49.006;9.292;2022-07-23T13:20:45;98840.16;;;37.70;30.37
50933;BME280;36921;49.006;9.292;2022-07-23T13:23:11;98829.13;;;37.96;29.62
50933;BME280;36921;49.006;9.292;2022-07-23T13:25:36;98831.50;;;38.24;30.18
50933;BME280;36921;49.006;9.292;2022-07-23T13:28:02;98834.91;;;38.88;29.85
50933;BME280;36921;49.006;9.292;2022-07-23T13:30:28;98829.13;;;38.74;29.12
50933;BME280;36921;49.006;9.292;2022-07-23T13:32:54;98827.66;;;39.53;28.54
50933;BME280;36921;49.006;9.292;2022-07-23T13:35:19;98823.34;;;39.84;27.09
50933;BME280;36921;49.006;9.292;2022-07-23T13:37:45;98816.09;;;39.98;26.34